Time;durP1;ratioP1;P1;durP2;ratioP2;P2;SDS_P1;SDS_P2;PMS_P1;PMS_P2;Temp;Humidity;BMP_temperature;BMP_pressure;BME280_temperature;BME280_humidity;BME280_pressure;Samples;Min_cycle;Max_cycle;Signal;HPM_P1;HPM_P2
2022/10/06 00:02:24;;;;;;;1.70;1.60;;;20.40;57.10;;;;;;5162362;27;45347;-74
2022/10/06 00:04:51;;;;;;;1.85;1.67;;;20.40;57.20;;;;;;5170611;27;45299;-74
2022/10/06 00:07:18;;;;;;;2.00;1.40;;;20.40;57.10;;;;;;5170742;27;45191;-74
2022/10/06 00:09:45;;;;;;;1.50;1.40;;;20.40;57.00;;;;;;5171011;27;45274;-74
2022/10/06 00:12:13;;;;;;;1.65;1.55;;;20.40;57.00;;;;;;5170363;27;45333;-74
2022/10/06 00:14:40;;;;;;;1.65;1.55;;;20.40;57.10;;;;;;5170502;27;45256;-74
2022/10/06 00:17:07;;;;;;;2.08;1.60;;;20.40;57.00;;;;;;5170549;27;45245;-74
2022/10/06 00:19:34;;;;;;;2.15;1.60;;;20.40;56.90;;;;;;5170688;27;45373;-75
2022/10/06 00:22:01;;;;;;;2.28;1.40;;;20.40;56.90;;;;;;5170199;27;45637;-75
2022/10/06 00:24:28;;;;;;;1.40;1.30;;;20.40;56.90;;;;;;5170297;27;45301;-75
2022/10/06 00:26:54;;;;;;;1.63;1.52;;;20.40;56.90;;;;;;5170453;27;45283;-75
2022/10/06 00:29:23;;;;;;;3.08;1.40;;;20.40;56.90;;;;;;5170848;27;45233;-75
2022/10/06 00:31:49;;;;;;;2.10;1.60;;;20.40;57.00;;;;;;5170112;27;46417;-75
2022/10/06 00:34:16;;;;;;;1.40;1.30;;;20.40;57.00;;;;;;5170113;27;45449;-75
2022/10/06 00:36:43;;;;;;;1.50;1.40;;;20.40;56.90;;;;;;5155908;27;45357;-75
2022/10/06 00:39:10;;;;;;;1.52;1.38;;;20.40;56.90;;;;;;5149562;27;45327;-75
2022/10/06 00:41:38;;;;;;;1.80;1.58;;;20.40;56.90;;;;;;5149148;27;45200;-75
2022/10/06 00:44:05;;;;;;;1.55;1.45;;;20.30;56.90;;;;;;5149029;27;45436;-75
2022/10/06 00:46:35;;;;;;;1.52;1.42;;;20.30;56.90;;;;;;5149159;27;45351;-74
2022/10/06 00:49:08;;;;;;;1.50;1.40;;;20.30;56.90;;;;;;5149123;27;45456;-75
2022/10/06 00:51:35;;;;;;;1.40;1.30;;;20.30;56.90;;;;;;5148821;27;45216;-75
2022/10/06 00:54:02;;;;;;;2.03;1.50;;;20.30;57.00;;;;;;5149138;27;45254;-75
2022/10/06 00:56:29;;;;;;;1.52;1.42;;;20.30;57.00;;;;;;5149090;27;45275;-75
2022/10/06 00:58:56;;;;;;;1.65;1.45;;;20.20;57.00;;;;;;5149101;27;45224;-75
2022/10/06 01:01:23;;;;;;;1.13;1.13;;;20.20;57.00;;;;;;5152468;27;46395;-75
2022/10/06 01:03:53;;;;;;;1.63;1.45;;;20.20;57.00;;;;;;5169707;27;45284;-74
2022/10/06 01:06:20;;;;;;;2.17;1.50;;;20.20;57.00;;;;;;5169907;27;45304;-75
2022/10/06 01:08:47;;;;;;;1.60;1.35;;;20.20;57.70;;;;;;5170007;27;45209;-75
2022/10/06 01:11:15;;;;;;;1.50;1.40;;;20.20;57.00;;;;;;5169445;27;45284;-74
2022/10/06 01:13:42;;;;;;;1.60;1.50;;;20.20;57.10;;;;;;5169532;27;45188;-75
2022/10/06 01:16:14;;;;;;;1.55;1.40;;;20.20;57.10;;;;;;5169652;27;45263;-75
2022/10/06 01:18:41;;;;;;;1.80;1.30;;;20.20;57.00;;;;;;5169803;27;45173;-74
2022/10/06 01:21:11;;;;;;;1.55;1.45;;;20.20;57.00;;;;;;5169269;27;45419;-74
2022/10/06 01:23:40;;;;;;;1.52;1.42;;;20.20;57.00;;;;;;5169414;27;45285;-74
2022/10/06 01:26:08;;;;;;;1.63;1.40;;;20.20;57.00;;;;;;5166726;27;45279;-75
2022/10/06 01:28:35;;;;;;;1.60;1.50;;;20.20;57.00;;;;;;5169509;27;45418;-74
2022/10/06 01:31:02;;;;;;;1.40;1.30;;;20.20;57.00;;;;;;5169126;27;46733;-75
2022/10/06 01:33:29;;;;;;;1.20;1.20;;;20.20;57.00;;;;;;5169264;27;45424;-74
2022/10/06 01:35:56;;;;;;;1.48;1.38;;;20.10;57.00;;;;;;5161801;27;45258;-74
2022/10/06 01:38:23;;;;;;;1.58;1.25;;;20.20;57.00;;;;;;5148416;27;45360;-75
2022/10/06 01:40:52;;;;;;;1.48;1.35;;;20.20;57.00;;;;;;5148052;27;48727;-74
2022/10/06 01:43:19;;;;;;;1.40;1.30;;;20.20;56.90;;;;;;5148062;27;45298;-74
2022/10/06 03:49:04;;;;;;;1.20;1.10;;;19.70;57.30;;;;;;5148248;27;45514;-76
2022/10/06 03:51:31;;;;;;;1.60;1.50;;;19.70;57.20;;;;;;5172300;27;45399;-76
2022/10/06 03:53:59;;;;;;;1.60;1.35;;;19.70;57.30;;;;;;5169167;27;46587;-75
2022/10/06 03:56:27;;;;;;;1.40;1.30;;;19.70;57.90;;;;;;5171873;27;45424;-75
2022/10/06 03:58:56;;;;;;;1.63;1.27;;;19.70;57.30;;;;;;5172059;27;45284;-76
2022/10/06 04:01:24;;;;;;;1.88;1.10;;;19.70;57.30;;;;;;5167905;27;45190;-75
2022/10/06 04:03:51;;;;;;;1.45;1.30;;;19.70;57.30;;;;;;5149972;27;46388;-76
2022/10/06 04:06:19;;;;;;;1.35;1.20;;;19.70;57.20;;;;;;5150473;27;45349;-76
2022/10/06 04:08:47;;;;;;;0.90;0.90;;;19.70;57.30;;;;;;5150968;27;45243;-76
2022/10/06 04:11:15;;;;;;;1.30;1.20;;;19.70;57.20;;;;;;5150885;27;45213;-76
2022/10/06 04:13:42;;;;;;;1.48;1.35;;;19.70;57.20;;;;;;5150458;27;46474;-75
2022/10/06 04:16:10;;;;;;;1.55;1.20;;;19.70;57.70;;;;;;5150314;27;45328;-76
2022/10/06 04:18:38;;;;;;;1.30;1.20;;;19.60;57.10;;;;;;5150509;27;45230;-76
2022/10/06 04:21:05;;;;;;;1.20;1.10;;;19.60;57.20;;;;;;5150731;27;45185;-76
2022/10/06 04:23:35;;;;;;;1.70;1.40;;;19.60;57.20;;;;;;5150586;27;47357;-76
2022/10/06 04:26:04;;;;;;;1.98;1.10;;;19.60;57.20;;;;;;5150387;27;45226;-75
2022/10/06 04:28:31;;;;;;;1.20;1.20;;;19.60;57.10;;;;;;5150614;27;45264;-76
2022/10/06 04:30:57;;;;;;;1.30;1.20;;;19.60;57.20;;;;;;5150533;27;45601;-76
2022/10/06 04:33:24;;;;;;;1.30;1.20;;;19.60;57.20;;;;;;5150241;27;45278;-75
2022/10/06 04:35:57;;;;;;;1.63;1.52;;;19.60;57.20;;;;;;5156956;27;45325;-76
2022/10/06 04:38:24;;;;;;;1.20;1.10;;;19.50;57.20;;;;;;5171196;27;45368;-76
2022/10/06 04:40:52;;;;;;;1.52;1.27;;;19.60;57.30;;;;;;5171375;27;45392;-76
2022/10/06 04:43:19;;;;;;;1.23;1.13;;;19.50;57.20;;;;;;5168268;27;45373;-76
2022/10/06 04:45:46;;;;;;;1.23;1.15;;;19.50;57.20;;;;;;5171140;27;45213;-76
2022/10/06 04:48:14;;;;;;;1.38;1.25;;;19.50;57.20;;;;;;5171500;27;45289;-76
2022/10/06 04:50:40;;;;;;;1.40;1.30;;;19.50;57.20;;;;;;5170591;27;45236;-76
2022/10/06 04:53:07;;;;;;;1.30;1.20;;;19.50;57.30;;;;;;5170520;27;46440;-75
2022/10/06 04:55:34;;;;;;;1.23;1.00;;;19.50;57.90;;;;;;5168353;27;45277;-76
2022/10/06 04:58:03;;;;;;;1.50;1.40;;;19.50;57.30;;;;;;5170855;27;45345;-76
2022/10/06 05:00:30;;;;;;;1.50;1.40;;;19.50;57.30;;;;;;5171149;27;45303;-76
2022/10/06 05:02:56;;;;;;;1.08;1.08;;;19.50;57.30;;;;;;5153008;27;46449;-76
2022/10/06 05:05:23;;;;;;;1.25;1.15;;;19.50;57.90;;;;;;5147024;27;45243;-75
2022/10/06 05:07:50;;;;;;;1.40;1.30;;;19.50;57.30;;;;;;5149589;27;45246;-76
2022/10/06 05:10:17;;;;;;;1.38;1.27;;;19.50;57.30;;;;;;5149767;27;45290;-76
2022/10/06 05:12:44;;;;;;;1.35;1.20;;;19.50;57.30;;;;;;5149461;27;45493;-76
2022/10/06 05:15:14;;;;;;;2.10;1.20;;;19.50;57.30;;;;;;5149577;27;45370;-76
2022/10/06 05:17:41;;;;;;;1.30;1.15;;;19.50;57.40;;;;;;5149709;27;45286;-75
2022/10/06 05:20:09;;;;;;;2.10;1.30;;;19.50;57.30;;;;;;5149841;27;45553;-75
2022/10/06 05:22:36;;;;;;;1.90;1.38;;;19.50;57.90;;;;;;5149140;27;45363;-75
2022/10/06 05:25:04;;;;;;;1.33;1.17;;;19.50;57.40;;;;;;5149479;27;45225;-76
2022/10/06 05:27:31;;;;;;;1.40;1.30;;;19.50;57.40;;;;;;5149589;27;45225;-75
2022/10/06 05:29:57;;;;;;;1.30;1.20;;;19.40;57.30;;;;;;5149534;27;45450;-75
2022/10/06 05:32:26;;;;;;;1.38;1.20;;;19.40;57.40;;;;;;5148947;27;46502;-75
2022/10/06 05:34:53;;;;;;;2.13;1.20;;;19.50;57.40;;;;;;5149322;27;45295;-75
2022/10/06 05:37:19;;;;;;;1.70;1.30;;;19.40;57.30;;;;;;5148620;27;45286;-76
2022/10/06 05:39:46;;;;;;;1.25;1.15;;;19.40;57.30;;;;;;5149270;27;45478;-76
2022/10/06 05:42:13;;;;;;;1.45;1.17;;;19.50;57.40;;;;;;5148757;27;46445;-75
2022/10/06 05:44:40;;;;;;;1.15;1.10;;;19.40;57.30;;;;;;5149431;27;45416;-75
2022/10/06 05:47:07;;;;;;;1.30;1.20;;;19.40;57.40;;;;;;5149230;27;45293;-75
2022/10/06 05:49:35;;;;;;;1.40;1.30;;;19.40;57.40;;;;;;5149606;27;45588;-75
2022/10/06 05:52:04;;;;;;;1.40;1.30;;;19.40;58.00;;;;;;5149219;27;45267;-76
2022/10/06 05:54:31;;;;;;;1.25;1.15;;;19.40;57.40;;;;;;5149080;27;45324;-75
2022/10/06 05:56:57;;;;;;;1.10;1.10;;;19.40;57.40;;;;;;5149064;27;45254;-75
2022/10/06 05:59:24;;;;;;;1.40;1.30;;;19.40;57.40;;;;;;5149274;27;45651;-75
2022/10/06 06:01:52;;;;;;;1.10;1.00;;;19.40;57.40;;;;;;5156658;27;46677;-75
2022/10/06 06:04:19;;;;;;;1.50;1.40;;;19.40;57.40;;;;;;5169754;27;45254;-75
2022/10/06 06:06:48;;;;;;;1.30;1.20;;;19.40;57.40;;;;;;5170046;27;45482;-75
2022/10/06 06:09:15;;;;;;;2.30;1.38;;;19.40;57.40;;;;;;5170156;27;45166;-75
2022/10/06 06:11:43;;;;;;;1.40;1.15;;;19.40;57.40;;;;;;5169603;27;46441;-76
2022/10/06 06:14:11;;;;;;;1.30;1.20;;;19.40;57.40;;;;;;5169414;27;45292;-75
2022/10/06 06:16:37;;;;;;;3.05;1.40;;;19.40;57.50;;;;;;5169849;27;45250;-75
2022/10/06 06:19:05;;;;;;;1.58;1.27;;;19.40;57.50;;;;;;5170097;27;45183;-75
2022/10/06 06:21:32;;;;;;;1.38;1.27;;;19.40;57.50;;;;;;5168980;27;46382;-76
2022/10/06 06:24:00;;;;;;;1.42;1.33;;;19.40;57.50;;;;;;5168976;27;45262;-75
2022/10/06 06:26:28;;;;;;;1.35;1.20;;;19.30;57.50;;;;;;5169672;27;45231;-76
2022/10/06 06:28:59;;;;;;;1.05;1.05;;;19.40;57.50;;;;;;5169805;27;45319;-75
2022/10/06 06:31:26;;;;;;;1.25;1.15;;;19.30;57.50;;;;;;5169249;27;46826;-75
2022/10/06 06:33:54;;;;;;;1.30;1.20;;;19.40;57.50;;;;;;5169281;27;45257;-76
2022/10/06 06:36:23;;;;;;;1.45;1.35;;;19.40;57.50;;;;;;5158518;27;45308;-75
2022/10/06 06:38:51;;;;;;;1.70;1.60;;;19.40;57.50;;;;;;5148725;27;45407;-76
2022/10/06 06:41:20;;;;;;;1.40;1.30;;;19.40;57.50;;;;;;5148527;27;46540;-75
2022/10/06 06:43:47;;;;;;;1.33;1.10;;;19.40;57.50;;;;;;5152194;27;45270;-75
2022/10/06 06:46:14;;;;;;;2.22;1.27;;;19.30;57.50;;;;;;5152188;27;45270;-75
2022/10/06 06:48:41;;;;;;;1.25;1.15;;;19.30;57.50;;;;;;5152250;27;45309;-75
2022/10/06 06:51:09;;;;;;;1.35;1.25;;;19.30;57.60;;;;;;5151915;27;46353;-76
2022/10/06 06:53:36;;;;;;;1.20;1.10;;;19.30;57.60;;;;;;5151953;27;45196;-76
2022/10/06 06:56:03;;;;;;;1.95;1.20;;;19.30;57.50;;;;;;5152051;27;45313;-75
2022/10/06 06:58:32;;;;;;;1.42;1.33;;;19.30;57.50;;;;;;5152134;27;45453;-75
2022/10/06 07:01:05;;;;;;;1.38;1.27;;;19.30;57.60;;;;;;5152122;27;45772;-75
2022/10/06 07:03:32;;;;;;;1.38;1.27;;;19.30;57.60;;;;;;5172767;27;45341;-75
2022/10/06 07:06:05;;;;;;;1.58;1.48;;;19.30;57.60;;;;;;5173030;27;45284;-76
2022/10/06 07:08:32;;;;;;;1.20;1.10;;;19.30;57.60;;;;;;5173143;27;45362;-76
2022/10/06 07:10:59;;;;;;;1.70;1.50;;;19.30;57.60;;;;;;5172601;27;46456;-75
2022/10/06 07:13:26;;;;;;;1.15;1.15;;;19.40;57.60;;;;;;5171979;27;45321;-75
2022/10/06 07:26:52;;;;;;;1.30;1.20;;;19.40;57.50;;;;;;5169954;27;45239;-75
2022/10/06 07:29:19;;;;;;;1.80;1.40;;;19.40;57.50;;;;;;5172547;27;45423;-75
2022/10/06 07:31:48;;;;;;;1.23;1.13;;;19.40;57.50;;;;;;5172302;27;45396;-75
2022/10/06 07:34:15;;;;;;;1.35;1.30;;;19.40;57.50;;;;;;5171985;27;45249;-74
2022/10/06 07:36:45;;;;;;;1.45;1.35;;;19.40;57.50;;;;;;5157514;27;45253;-75
2022/10/06 07:39:12;;;;;;;1.10;1.10;;;19.40;57.50;;;;;;5151610;27;45498;-75
2022/10/06 07:41:39;;;;;;;1.67;1.58;;;19.40;57.50;;;;;;5151259;27;47016;-75
2022/10/06 07:44:06;;;;;;;2.40;1.35;;;19.40;57.50;;;;;;5151005;27;45173;-75
2022/10/06 07:46:33;;;;;;;1.73;1.17;;;19.40;57.60;;;;;;5151103;27;45217;-76
2022/10/06 07:49:01;;;;;;;1.20;1.10;;;19.40;57.50;;;;;;5151436;27;45217;-75
2022/10/06 07:51:28;;;;;;;1.35;1.25;;;19.40;57.60;;;;;;5150893;27;46397;-76
2022/10/06 07:53:55;;;;;;;2.70;1.33;;;19.40;58.20;;;;;;5150105;27;45257;-76
2022/10/06 07:56:22;;;;;;;1.55;1.30;;;19.40;57.60;;;;;;5151765;27;45242;-76
2022/10/06 07:58:49;;;;;;;1.60;1.40;;;19.40;57.60;;;;;;5151010;27;45318;-75
2022/10/06 08:01:18;;;;;;;1.45;1.35;;;19.40;57.60;;;;;;5153579;27;45459;-76
2022/10/06 08:03:47;;;;;;;1.40;1.33;;;19.40;57.60;;;;;;5171708;27;45426;-74
2022/10/06 08:06:17;;;;;;;3.30;1.40;;;19.40;57.60;;;;;;5172036;27;45393;-75
2022/10/06 08:08:44;;;;;;;1.35;1.25;;;19.40;57.60;;;;;;5172347;27;45186;-75
2022/10/06 08:11:12;;;;;;;1.13;1.00;;;19.40;57.60;;;;;;5171578;27;46368;-75
2022/10/06 08:13:40;;;;;;;1.35;1.25;;;19.40;57.60;;;;;;5171793;27;45313;-75
2022/10/06 08:16:07;;;;;;;1.30;1.20;;;19.40;57.60;;;;;;5171670;27;45284;-75
2022/10/06 08:18:34;;;;;;;1.50;1.25;;;19.40;57.60;;;;;;5171714;27;45458;-75
2022/10/06 08:21:01;;;;;;;1.20;1.10;;;19.40;57.70;;;;;;5171345;27;46920;-75
2022/10/06 08:23:29;;;;;;;1.30;1.20;;;19.40;57.70;;;;;;5169332;27;45338;-75
2022/10/06 08:25:56;;;;;;;2.22;1.30;;;19.40;57.70;;;;;;5171341;27;45284;-75
2022/10/06 08:28:23;;;;;;;1.20;1.10;;;19.40;57.70;;;;;;5171594;27;45400;-75
2022/10/06 08:30:51;;;;;;;1.25;1.15;;;19.40;57.60;;;;;;5171121;27;45714;-75
2022/10/06 08:33:18;;;;;;;1.40;1.30;;;19.40;57.70;;;;;;5171373;27;45204;-75
2022/10/06 08:35:45;;;;;;;1.40;1.30;;;19.50;57.90;;;;;;5165559;27;45290;-75
2022/10/06 08:38:13;;;;;;;1.10;1.10;;;19.50;58.30;;;;;;5150432;27;45344;-75
2022/10/06 08:40:43;;;;;;;2.05;1.20;;;19.40;57.60;;;;;;5150012;27;46892;-75
2022/10/06 08:43:13;;;;;;;1.33;1.23;;;19.40;57.60;;;;;;5150074;27;45362;-75
2022/10/06 08:45:42;;;;;;;1.00;1.00;;;19.50;57.70;;;;;;5150317;27;45192;-75
2022/10/06 08:48:12;;;;;;;1.20;1.10;;;19.50;57.70;;;;;;5150427;27;45417;-75
2022/10/06 08:50:44;;;;;;;1.92;1.20;;;19.50;57.70;;;;;;5149582;27;45772;-75
2022/10/06 08:53:14;;;;;;;1.83;1.20;;;19.50;57.70;;;;;;5150176;27;45306;-74
2022/10/06 08:55:46;;;;;;;1.63;1.30;;;19.50;57.70;;;;;;5149967;27;45241;-75
2022/10/06 08:58:27;;;;;;;1.50;1.40;;;19.50;57.70;;;;;;5149859;27;45286;-75
2022/10/06 09:00:55;;;;;;;1.30;1.20;;;19.50;57.70;;;;;;5149602;27;46655;-74
2022/10/06 09:03:24;;;;;;;1.33;1.23;;;19.50;57.70;;;;;;5149501;27;45299;-75
2022/10/06 09:05:51;;;;;;;1.67;1.10;;;19.50;57.80;;;;;;5148562;27;45202;-75
2022/10/06 09:08:42;;;;;;;1.85;1.50;;;19.50;57.80;;;;;;5147230;27;45134;-75
2022/10/06 09:11:25;;;;;;;1.85;1.20;;;19.50;57.80;;;;;;5138686;27;46650;-75
2022/10/06 09:13:54;;;;;;;2.25;1.25;;;19.50;57.70;;;;;;5146777;27;45511;-75
2022/10/06 09:16:21;;;;;;;1.30;1.20;;;19.50;57.70;;;;;;5149654;27;45246;-75
2022/10/06 09:18:49;;;;;;;1.30;1.20;;;19.50;57.70;;;;;;5149476;27;45459;-75
2022/10/06 09:21:17;;;;;;;2.45;1.50;;;19.50;57.60;;;;;;5149135;27;46741;-74
2022/10/06 09:23:49;;;;;;;1.35;1.25;;;19.50;57.60;;;;;;5149310;27;45253;-75
2022/10/06 09:26:18;;;;;;;1.20;1.10;;;19.50;57.60;;;;;;5149411;27;45386;-75
2022/10/06 09:28:45;;;;;;;1.30;1.20;;;19.50;58.30;;;;;;5149660;27;45372;-75
2022/10/06 09:31:20;;;;;;;1.13;1.02;;;19.60;57.70;;;;;;5148844;27;46652;-75
2022/10/06 09:33:47;;;;;;;1.38;1.27;;;19.60;57.70;;;;;;5149367;27;45258;-75
2022/10/06 09:36:14;;;;;;;1.50;1.40;;;19.60;57.60;;;;;;5159216;27;45159;-75
2022/10/06 09:38:54;;;;;;;2.15;1.10;;;19.60;57.70;;;;;;5170194;27;45274;-75
2022/10/06 09:41:26;;;;;;;2.28;1.20;;;19.60;57.60;;;;;;5169742;27;45230;-75
2022/10/06 09:43:55;;;;;;;1.20;1.10;;;19.60;57.50;;;;;;5167187;27;45286;-75
2022/10/06 09:46:27;;;;;;;1.63;1.20;;;19.60;57.50;;;;;;5170395;27;45146;-75
2022/10/06 09:49:15;;;;;;;1.40;1.30;;;19.70;57.50;;;;;;5170208;27;45561;-75
2022/10/06 09:51:50;;;;;;;1.92;1.20;;;19.70;57.40;;;;;;5169706;27;45514;-75
2022/10/06 09:54:17;;;;;;;1.00;1.00;;;19.70;57.40;;;;;;5172810;27;45234;-76
2022/10/06 09:56:46;;;;;;;2.45;1.48;;;19.70;57.30;;;;;;5170982;27;45263;-75
2022/10/06 09:59:19;;;;;;;1.15;1.15;;;19.70;57.30;;;;;;5170201;27;45382;-75
2022/10/06 10:01:51;;;;;;;1.20;1.10;;;19.80;57.30;;;;;;5162562;27;46589;-75
2022/10/06 10:04:22;;;;;;;1.30;1.20;;;19.80;57.80;;;;;;5148855;27;45269;-75
2022/10/06 10:06:48;;;;;;;1.50;1.10;;;19.80;57.20;;;;;;5148939;27;45301;-75
2022/10/06 10:09:28;;;;;;;2.13;1.23;;;19.80;57.20;;;;;;5148900;27;45304;-75
2022/10/06 10:12:30;;;;;;;1.98;1.20;;;19.80;57.20;;;;;;5148613;27;46633;-75
2022/10/06 10:14:58;;;;;;;2.15;1.10;;;19.80;57.10;;;;;;5148433;27;45257;-76
2022/10/06 10:17:47;;;;;;;2.00;1.08;;;19.80;57.10;;;;;;5150623;27;45394;-75
2022/10/06 10:20:27;;;;;;;1.20;1.10;;;19.90;57.10;;;;;;5144044;27;45465;-75
2022/10/06 10:22:54;;;;;;;1.25;1.15;;;19.90;57.10;;;;;;5151724;27;45292;-75
2022/10/06 10:25:50;;;;;;;1.38;1.27;;;19.90;57.00;;;;;;5152276;27;45375;-76
2022/10/06 10:28:33;;;;;;;2.15;1.27;;;19.90;56.90;;;;;;5152585;27;45299;-75
2022/10/06 10:31:03;;;;;;;1.85;1.10;;;20.00;56.90;;;;;;5152669;27;45401;-76
2022/10/06 10:33:32;;;;;;;2.22;1.42;;;20.00;56.90;;;;;;5152388;27;45718;-76
2022/10/06 10:35:59;;;;;;;1.13;1.02;;;20.00;56.90;;;;;;5159758;27;45404;-73
2022/10/06 10:38:27;;;;;;;1.30;1.10;;;20.00;56.80;;;;;;5172544;27;45298;-75
2022/10/06 10:40:57;;;;;;;1.10;1.00;;;20.00;56.80;;;;;;5173587;27;45275;-75
2022/10/06 10:43:28;;;;;;;1.35;1.25;;;20.10;56.80;;;;;;5172929;27;46303;-75
2022/10/06 10:45:57;;;;;;;1.42;1.08;;;20.10;56.80;;;;;;5173152;27;45129;-76
2022/10/06 10:48:30;;;;;;;1.55;1.17;;;20.10;56.70;;;;;;5173116;27;45269;-75
2022/10/06 10:51:01;;;;;;;1.10;1.10;;;20.20;56.60;;;;;;5173060;27;45578;-76
2022/10/06 10:53:32;;;;;;;2.25;1.13;;;20.20;56.50;;;;;;5172932;27;45541;-75
2022/10/06 10:55:59;;;;;;;1.77;1.30;;;20.30;56.40;;;;;;5172773;27;45258;-75
2022/10/06 10:58:30;;;;;;;1.15;1.05;;;20.40;56.20;;;;;;5172995;27;45313;-75
2022/10/06 11:01:00;;;;;;;1.58;1.13;;;20.50;56.00;;;;;;5173132;27;45198;-75
2022/10/06 11:03:27;;;;;;;1.33;1.10;;;20.60;55.80;;;;;;5151576;27;46605;-75
2022/10/06 11:06:05;;;;;;;2.67;1.10;;;20.60;55.60;;;;;;5151684;27;45286;-75
2022/10/06 11:08:35;;;;;;;1.20;1.10;;;20.70;55.50;;;;;;5152055;27;45270;-75
2022/10/06 11:11:04;;;;;;;3.08;1.23;;;20.80;55.40;;;;;;5152117;27;45413;-76
2022/10/06 11:13:35;;;;;;;2.15;1.13;;;20.70;55.40;;;;;;5151288;27;46383;-75
2022/10/06 11:16:16;;;;;;;0.95;0.95;;;20.70;55.50;;;;;;5151538;27;45378;-75
2022/10/06 11:18:54;;;;;;;1.38;1.13;;;20.70;55.80;;;;;;5151273;27;45202;-75
2022/10/06 11:21:23;;;;;;;1.95;1.48;;;20.70;55.70;;;;;;5151660;27;45346;-75
2022/10/06 11:23:55;;;;;;;1.10;1.00;;;20.70;56.40;;;;;;5151198;27;46795;-75
2022/10/06 11:26:36;;;;;;;1.75;0.98;;;20.70;55.90;;;;;;5151380;27;45393;-75
2022/10/06 11:29:09;;;;;;;1.20;1.13;;;20.70;56.00;;;;;;5150587;27;45206;-75
2022/10/06 11:31:38;;;;;;;1.30;1.20;;;20.70;56.10;;;;;;5151580;27;45457;-76
2022/10/06 11:34:06;;;;;;;1.85;1.10;;;20.70;56.10;;;;;;5151289;27;46315;-76
2022/10/06 11:36:38;;;;;;;3.60;1.20;;;20.70;56.20;;;;;;5163776;27;45244;-76
2022/10/06 11:39:10;;;;;;;2.50;1.20;;;20.70;56.10;;;;;;5172344;27;45326;-75
2022/10/06 11:41:38;;;;;;;0.85;0.80;;;20.70;56.00;;;;;;5172408;27;45234;-76
2022/10/06 11:44:12;;;;;;;1.67;1.00;;;20.70;56.10;;;;;;5171916;27;46842;-75
2022/10/06 11:46:41;;;;;;;1.30;1.20;;;20.70;56.00;;;;;;5172069;27;45193;-75
2022/10/06 11:49:38;;;;;;;1.30;1.20;;;20.80;55.90;;;;;;5171721;27;45140;-76
2022/10/06 11:52:35;;;;;;;2.45;1.08;;;20.90;55.50;;;;;;5172268;27;45287;-75
2022/10/06 11:55:07;;;;;;;1.20;1.10;;;21.10;55.20;;;;;;5171825;27;45264;-75
2022/10/06 11:57:34;;;;;;;2.10;1.25;;;21.20;55.00;;;;;;5171996;27;45297;-75
2022/10/06 12:00:34;;;;;;;3.53;0.90;;;21.20;54.80;;;;;;5172339;27;45216;-76
2022/10/06 12:03:53;;;;;;;1.48;1.20;;;21.30;54.60;;;;;;5153833;27;45322;-75
2022/10/06 12:07:09;;;;;;;1.33;1.20;;;21.40;54.40;;;;;;5147936;27;46405;-75
2022/10/06 12:09:46;;;;;;;1.00;0.98;;;21.50;54.30;;;;;;5102749;27;45246;-75
2022/10/06 12:12:55;;;;;;;1.13;1.10;;;21.50;54.10;;;;;;5150904;27;45248;-75
2022/10/06 12:15:42;;;;;;;1.38;1.00;;;21.60;54.10;;;;;;5151004;27;45405;-75
2022/10/06 12:18:21;;;;;;;1.45;1.25;;;21.50;54.20;;;;;;5150481;27;46544;-75
2022/10/06 12:20:54;;;;;;;1.08;0.98;;;21.50;54.20;;;;;;5150547;27;45195;-75
2022/10/06 12:23:28;;;;;;;1.17;1.13;;;21.60;54.20;;;;;;5150677;27;45378;-75
2022/10/06 12:25:57;;;;;;;1.95;1.00;;;21.60;54.70;;;;;;5150721;27;45257;-76
2022/10/06 12:28:31;;;;;;;1.30;1.20;;;21.70;54.00;;;;;;5150476;27;48850;-75
2022/10/06 12:31:06;;;;;;;1.33;1.02;;;21.80;53.90;;;;;;5150601;27;45251;-75
2022/10/06 12:33:38;;;;;;;2.22;1.13;;;21.80;53.80;;;;;;5147914;27;45274;-76
2022/10/06 12:36:05;;;;;;;1.67;1.30;;;21.90;53.80;;;;;;5159205;27;45222;-75
2022/10/06 12:38:43;;;;;;;1.23;0.90;;;21.90;53.80;;;;;;5171209;27;45285;-76
2022/10/06 12:41:10;;;;;;;1.52;1.00;;;21.90;53.70;;;;;;5170938;27;45169;-76
2022/10/06 12:43:55;;;;;;;5.35;1.40;;;22.00;53.70;;;;;;5171463;27;45334;-76
2022/10/06 12:46:25;;;;;;;2.55;1.10;;;22.00;53.70;;;;;;5171548;27;45404;-75
2022/10/06 12:49:00;;;;;;;1.27;1.10;;;22.00;53.70;;;;;;5170639;27;45465;-76
2022/10/06 12:51:30;;;;;;;1.45;1.20;;;22.00;53.70;;;;;;5170889;27;45198;-76
2022/10/06 12:54:01;;;;;;;2.67;1.13;;;22.10;53.60;;;;;;5171006;27;45256;-76
2022/10/06 12:56:30;;;;;;;1.35;1.23;;;22.10;53.70;;;;;;5168580;27;45251;-75
2022/10/06 12:58:57;;;;;;;4.57;1.17;;;22.10;53.60;;;;;;5170599;27;45749;-75
2022/10/06 13:01:24;;;;;;;2.67;1.02;;;22.10;53.50;;;;;;5166496;27;45315;-75
2022/10/06 13:03:51;;;;;;;1.55;1.10;;;22.20;53.50;;;;;;5149259;27;45266;-76
2022/10/06 13:06:22;;;;;;;1.00;0.90;;;22.20;53.50;;;;;;5150081;27;45225;-76
2022/10/06 13:09:02;;;;;;;2.65;1.30;;;22.20;53.40;;;;;;5149708;27;45447;-75
2022/10/06 13:11:29;;;;;;;3.28;1.10;;;22.30;53.40;;;;;;5149761;27;45290;-76
2022/10/06 13:13:58;;;;;;;1.20;1.10;;;22.20;54.20;;;;;;5149742;27;45403;-75
2022/10/06 13:16:26;;;;;;;2.47;1.10;;;22.20;54.10;;;;;;5149897;27;45244;-76
2022/10/06 13:18:54;;;;;;;3.45;1.10;;;22.20;53.60;;;;;;5149790;27;46370;-76
2022/10/06 13:21:23;;;;;;;1.65;1.13;;;22.20;54.20;;;;;;5149597;27;45340;-76
2022/10/06 13:23:50;;;;;;;2.10;1.40;;;22.20;53.60;;;;;;5152245;27;45228;-76
2022/10/06 13:26:20;;;;;;;2.33;1.50;;;22.30;53.60;;;;;;5168343;27;45262;-75
2022/10/06 13:28:48;;;;;;;2.45;1.00;;;22.30;53.60;;;;;;5149243;27;46774;-75
2022/10/06 13:31:19;;;;;;;3.10;1.13;;;22.30;53.30;;;;;;5149362;27;45330;-76
2022/10/06 13:33:47;;;;;;;4.50;1.35;;;22.30;53.10;;;;;;5149547;27;45317;-75
2022/10/06 13:36:14;;;;;;;2.33;1.20;;;22.30;53.10;;;;;;5159479;27;45364;-76
2022/10/06 13:38:42;;;;;;;4.35;1.02;;;22.30;53.00;;;;;;5170290;27;45676;-75
2022/10/06 13:41:21;;;;;;;2.88;1.10;;;22.30;52.90;;;;;;5170214;27;45289;-75
2022/10/06 13:43:50;;;;;;;3.40;1.10;;;22.30;52.90;;;;;;5161071;27;45291;-75
2022/10/06 13:46:17;;;;;;;2.83;1.40;;;22.30;52.80;;;;;;5149402;27;45460;-75
2022/10/06 13:48:46;;;;;;;3.45;1.52;;;22.30;52.80;;;;;;5152737;27;47037;-75
2022/10/06 13:51:17;;;;;;;6.10;1.40;;;22.30;52.80;;;;;;5162024;27;45281;-75
2022/10/06 13:53:46;;;;;;;4.68;1.15;;;22.30;52.80;;;;;;5157663;27;45302;-75
2022/10/06 13:56:33;;;;;;;1.88;1.10;;;22.20;52.90;;;;;;5149531;27;45266;-75
2022/10/06 13:59:15;;;;;;;3.03;1.48;;;22.20;52.80;;;;;;5149325;27;47319;-75
2022/10/06 14:01:42;;;;;;;2.92;1.30;;;22.20;52.90;;;;;;5153639;27;45337;-75
2022/10/06 14:04:12;;;;;;;4.20;1.73;;;22.20;52.90;;;;;;5150222;27;45411;-75
2022/10/06 14:06:45;;;;;;;2.85;1.13;;;22.20;53.00;;;;;;5152235;27;45228;-75
2022/10/06 14:09:17;;;;;;;2.33;1.33;;;22.20;52.80;;;;;;5168794;27;46415;-73
2022/10/06 14:11:44;;;;;;;2.85;1.40;;;22.20;52.80;;;;;;5169881;27;45270;-75
2022/10/06 14:14:14;;;;;;;3.78;1.45;;;22.10;52.80;;;;;;5169842;27;45404;-75
2022/10/06 14:16:40;;;;;;;3.70;1.27;;;22.10;52.90;;;;;;5169423;27;45169;-75
2022/10/06 14:19:23;;;;;;;3.15;1.27;;;22.10;52.90;;;;;;5155470;27;45768;-75
2022/10/06 14:21:50;;;;;;;4.85;1.42;;;22.00;52.90;;;;;;5150757;27;45440;-75
2022/10/06 14:24:24;;;;;;;2.85;1.30;;;22.00;53.10;;;;;;5158076;27;45415;-75
2022/10/06 14:26:53;;;;;;;2.72;1.05;;;22.00;53.20;;;;;;5148918;27;45496;-76
2022/10/06 14:29:21;;;;;;;3.13;1.20;;;21.90;53.30;;;;;;5150535;27;46545;-76
2022/10/06 14:31:48;;;;;;;6.57;1.38;;;21.90;53.40;;;;;;5151953;27;45247;-75
2022/10/06 14:34:15;;;;;;;3.17;1.20;;;21.80;53.60;;;;;;5149941;27;45394;-75
2022/10/06 14:36:43;;;;;;;3.28;1.30;;;21.80;53.70;;;;;;5155679;27;45575;-75
2022/10/06 14:39:11;;;;;;;2.20;1.17;;;21.80;53.80;;;;;;5148395;27;46601;-75
2022/10/06 14:41:40;;;;;;;5.32;1.30;;;21.80;53.90;;;;;;5148251;27;45234;-75
2022/10/06 14:44:08;;;;;;;2.45;1.10;;;21.70;53.90;;;;;;5162757;27;45483;-75
2022/10/06 14:46:35;;;;;;;2.90;0.98;;;21.70;53.90;;;;;;5156830;27;45305;-76
2022/10/06 14:49:06;;;;;;;5.25;2.97;;;21.70;54.00;;;;;;5166766;27;46391;-76
2022/10/06 14:51:33;;;;;;;2.75;1.80;;;21.70;54.20;;;;;;5152630;27;45555;-75
2022/10/06 14:54:00;;;;;;;2.83;2.08;;;21.60;54.30;;;;;;5162029;27;45297;-77
2022/10/06 14:56:30;;;;;;;3.95;1.60;;;21.60;54.30;;;;;;5165555;27;45436;-76
2022/10/06 14:58:59;;;;;;;14.50;1.80;;;21.60;54.30;;;;;;5150861;27;47814;-75
2022/10/06 15:01:27;;;;;;;2.75;1.50;;;21.60;54.40;;;;;;5161566;27;45351;-76
2022/10/06 15:03:54;;;;;;;6.30;2.15;;;21.60;55.30;;;;;;5161320;27;45683;-75
2022/10/06 15:09:05;;;;;;;4.07;2.03;;;21.60;55.10;;;;;;5162024;27;45234;-76
2022/10/06 15:11:32;;;;;;;4.65;1.48;;;21.60;55.00;;;;;;5154857;27;45199;-76
2022/10/06 15:14:01;;;;;;;2.25;1.20;;;21.60;55.00;;;;;;5160113;27;45307;-76
2022/10/06 15:16:28;;;;;;;4.05;1.45;;;21.50;55.00;;;;;;5162562;27;45234;-76
2022/10/06 15:18:55;;;;;;;7.07;1.20;;;21.50;55.20;;;;;;5151548;27;45238;-75
2022/10/06 15:21:23;;;;;;;1.92;1.30;;;21.50;55.20;;;;;;5169031;27;45289;-75